Time;durP1;ratioP1;P1;durP2;ratioP2;P2;SDS_P1;SDS_P2;PMS_P1;PMS_P2;Temp;Humidity;BMP_temperature;BMP_pressure;BME280_temperature;BME280_humidity;BME280_pressure;Samples;Min_cycle;Max_cycle;Signal;HPM_P1;HPM_P2
2022/08/08 00:01:27;;;;;;;5.80;2.10;;;;;;;17.15;78.76;101214.88;654265;1282;23650;-81
2022/08/08 00:16:55;;;;;;;5.90;1.90;;;;;;;16.69;80.14;101217.52;654357;1281;25358;-83
2022/08/08 00:32:05;;;;;;;7.50;3.00;;;;;;;16.50;81.78;101219.62;655509;1281;25264;-82
2022/08/08 00:47:57;;;;;;;5.90;2.40;;;;;;;16.16;82.44;101209.42;656255;1281;23567;-83
2022/08/08 01:03:33;;;;;;;6.10;2.60;;;;;;;15.88;84.17;101206.19;655818;1281;23654;-81
2022/08/08 01:19:38;;;;;;;7.60;2.70;;;;;;;15.75;85.90;101210.22;656605;1281;22854;-82
2022/08/08 01:35:31;;;;;;;3.70;2.50;;;;;;;15.57;86.33;101217.22;654400;1281;22700;-82
2022/08/08 01:51:01;;;;;;;3.20;2.40;;;;;;;15.36;86.86;101209.80;656466;1281;29969;-83
2022/08/08 02:06:47;;;;;;;4.70;2.50;;;;;;;15.10;87.60;101208.62;656014;1281;24386;-81
2022/08/08 02:38:19;;;;;;;6.90;2.80;;;;;;;14.80;89.40;101218.39;656044;1281;24415;-81
2022/08/08 02:53:58;;;;;;;9.50;6.10;;;;;;;14.70;90.14;101219.33;654757;1281;29954;-82
2022/08/08 03:09:42;;;;;;;9.90;7.70;;;;;;;14.59;90.55;101218.91;653212;1283;24349;-82
2022/08/08 03:24:50;;;;;;;4.70;2.70;;;;;;;14.40;90.63;101216.55;654390;1281;31142;-81
2022/08/08 03:40:00;;;;;;;5.80;2.90;;;;;;;14.28;90.55;101221.47;654450;1281;24307;-82
2022/08/08 03:55:12;;;;;;;9.60;4.50;;;;;;;14.27;91.29;101231.61;653750;1281;22603;-82
2022/08/08 04:10:37;;;;;;;12.30;4.50;;;;;;;14.34;92.58;101235.02;654523;1281;23920;-81
2022/08/08 04:25:41;;;;;;;8.40;4.00;;;;;;;14.76;93.42;101237.79;655468;1281;22539;-83
2022/08/08 04:40:45;;;;;;;9.00;3.90;;;;;;;15.42;91.09;101247.98;654831;1281;25514;-81
2022/08/08 04:55:56;;;;;;;7.10;3.20;;;;;;;15.62;92.87;101259.35;653339;1281;23615;-81
2022/08/08 05:11:02;;;;;;;3.80;2.80;;;;;;;16.11;93.48;101264.98;653264;1281;25384;-81
2022/08/08 05:26:06;;;;;;;6.10;3.70;;;;;;;17.67;89.06;101270.78;654684;1281;22890;-82
2022/08/08 05:41:12;;;;;;;5.30;2.60;;;;;;;17.96;90.94;101280.42;655487;1281;23613;-81
2022/08/08 05:56:19;;;;;;;4.90;2.20;;;;;;;18.80;92.84;101286.01;655155;1281;23512;-81
2022/08/08 06:11:24;;;;;;;3.60;2.10;;;;;;;19.54;89.58;101292.37;655263;1283;22675;-81
2022/08/08 06:26:38;;;;;;;4.70;1.70;;;;;;;19.92;86.57;101296.21;655682;1281;25801;-84
2022/08/08 06:41:53;;;;;;;3.90;2.00;;;;;;;20.37;84.34;101297.66;654583;1280;24473;-81
2022/08/08 06:57:00;;;;;;;8.00;1.80;;;;;;;20.98;81.74;101287.10;655696;1281;24447;-82
2022/08/08 07:12:07;;;;;;;4.90;1.80;;;;;;;21.90;77.46;101293.47;657033;1281;22572;-82
2022/08/08 07:27:20;;;;;;;;;;;;;;;23.50;71.04;101298.46;656850;1281;24523;-82
2022/08/08 07:42:40;;;;;;;3.90;1.50;;;;;;;24.26;68.31;101305.86;657275;1281;22574;-83
2022/08/08 07:58:25;;;;;;;6.20;1.80;;;;;;;25.71;65.95;101306.40;656715;1281;24001;-82
2022/08/08 08:14:01;;;;;;;8.50;1.80;;;;;;;26.80;63.75;101308.27;655263;1281;31893;-82
2022/08/08 08:29:14;;;;;;;5.90;1.40;;;;;;;27.26;61.10;101313.11;655387;1281;25271;-81
2022/08/08 08:44:24;;;;;;;4.50;1.70;;;;;;;28.12;57.38;101314.57;655395;1281;137620;-80
2022/08/08 08:59:38;;;;;;;2.90;1.10;;;;;;;27.62;58.16;101309.41;655019;1281;139490;-80
2022/08/08 09:15:01;;;;;;;5.80;4.70;;;;;;;28.42;54.66;101299.93;657577;1277;139660;-81
2022/08/08 09:30:13;;;;;;;3.00;1.10;;;;;;;27.85;52.05;101292.67;657192;1277;138998;-82
2022/08/08 09:45:32;;;;;;;3.70;1.50;;;;;;;25.90;51.67;101294.57;656213;1277;1328445;-81
2022/08/08 10:00:58;;;;;;;4.50;1.30;;;;;;;25.29;53.86;101297.12;657438;1277;138445;-82
2022/08/08 10:16:02;;;;;;;1.80;1.20;;;;;;;25.23;55.77;101300.38;656475;1277;138060;-82
2022/08/08 10:46:50;;;;;;;2.50;1.40;;;;;;;25.35;58.92;101302.36;657295;1277;138206;-82
2022/08/08 11:01:54;;;;;;;2.70;1.20;;;;;;;25.67;58.75;101295.58;661416;1277;138029;-82
2022/08/08 11:17:01;;;;;;;6.60;2.10;;;;;;;26.02;58.25;101296.11;656495;1277;138443;-83
2022/08/08 11:32:06;;;;;;;5.00;1.40;;;;;;;26.63;57.04;101288.44;658834;1277;139088;-80
2022/08/08 11:47:11;;;;;;;1.70;1.00;;;;;;;26.99;56.59;101284.15;657763;1277;139542;-89
2022/08/08 12:02:21;;;;;;;9.00;2.40;;;;;;;27.02;55.90;101280.65;657509;1277;138555;-89
2022/08/08 12:17:45;;;;;;;8.30;4.30;;;;;;;27.03;55.94;101289.59;657847;1277;138832;-87
2022/08/08 12:32:57;;;;;;;2.60;1.60;;;;;;;27.16;56.38;101293.64;663495;1277;137954;-81
2022/08/08 12:48:03;;;;;;;3.80;1.60;;;;;;;27.62;55.37;101289.94;657174;1277;138182;-82
2022/08/08 13:03:25;;;;;;;5.40;3.70;;;;;;;27.70;54.87;101286.70;656712;1277;138015;-82
2022/08/08 13:18:35;;;;;;;7.90;1.70;;;;;;;27.75;54.08;101283.44;657375;1277;138731;-82
2022/08/08 13:33:58;;;;;;;3.40;1.50;;;;;;;27.83;53.62;101283.42;658075;1277;139806;-82
2022/08/08 13:49:16;;;;;;;6.90;1.60;;;;;;;27.80;53.17;101286.95;658034;1277;138386;-81
2022/08/08 14:04:59;;;;;;;6.70;2.70;;;;;;;27.74;52.89;101284.11;658665;1277;138440;-81
2022/08/08 14:20:12;;;;;;;4.80;2.10;;;;;;;27.60;52.27;101283.29;657664;1277;139994;-81
2022/08/08 14:35:36;;;;;;;7.10;2.90;;;;;;;26.97;53.08;101288.99;657298;1277;138516;-82
2022/08/08 14:50:40;;;;;;;3.40;1.40;;;;;;;26.51;54.19;101291.61;658605;1277;138404;-80
2022/08/08 15:05:47;;;;;;;15.70;1.90;;;;;;;26.29;55.23;101290.63;660688;1277;139675;-80
2022/08/08 15:21:00;;;;;;;3.80;1.90;;;;;;;25.98;56.39;101285.91;656792;1277;139189;-82
2022/08/08 15:36:03;;;;;;;2.80;1.70;;;;;;;25.73;57.25;101296.88;656799;1277;139722;-80
2022/08/08 15:51:10;;;;;;;14.80;5.30;;;;;;;25.48;58.36;101292.23;656564;1277;138768;-80
2022/08/08 16:06:18;;;;;;;14.20;9.00;;;;;;;25.29;58.97;101293.54;657470;1276;138516;-81
2022/08/08 16:21:34;;;;;;;11.80;6.90;;;;;;;25.16;59.22;101290.27;655116;1277;139496;-80
2022/08/08 16:36:42;;;;;;;7.70;4.30;;;;;;;24.92;59.26;101283.80;655933;1277;138697;-80
2022/08/08 16:51:51;;;;;;;10.20;4.00;;;;;;;24.83;59.44;101285.95;655765;1277;138575;-81
2022/08/08 17:07:18;;;;;;;9.50;3.50;;;;;;;24.54;60.04;101288.86;657347;1277;138738;-83
2022/08/08 17:22:25;;;;;;;3.50;2.20;;;;;;;24.16;60.18;101294.08;657014;1277;141325;-81
2022/08/08 17:37:43;;;;;;;6.60;3.10;;;;;;;23.88;60.78;101294.36;657857;1277;139254;-81
2022/08/08 17:52:54;;;;;;;29.50;11.60;;;;;;;23.67;61.24;101304.46;656995;1277;138969;-81
2022/08/08 18:08:00;;;;;;;14.70;7.00;;;;;;;23.49;62.02;101311.94;657052;1277;138771;-81
2022/08/08 18:23:06;;;;;;;9.10;4.80;;;;;;;23.24;62.31;101320.89;656237;1277;138678;-82
2022/08/08 18:38:16;;;;;;;8.30;3.20;;;;;;;22.99;63.35;101327.50;657150;1277;140088;-80
2022/08/08 18:53:31;;;;;;;6.00;2.70;;;;;;;22.82;64.33;101337.27;657262;1277;139999;-81
2022/08/08 19:08:55;;;;;;;27.00;10.40;;;;;;;22.63;64.93;101347.08;656199;1277;138473;-82
2022/08/08 19:24:01;;;;;;;29.90;9.60;;;;;;;22.41;66.21;101364.67;657656;1277;138923;-81
2022/08/08 19:39:08;;;;;;;20.90;9.20;;;;;;;22.27;66.89;101370.11;655790;1277;139220;-82
2022/08/08 19:54:12;;;;;;;12.60;4.90;;;;;;;22.13;67.56;101383.82;656353;1277;139089;-83
2022/08/08 20:09:17;;;;;;;10.50;4.50;;;;;;;21.99;68.12;101392.64;656091;1277;140546;-82
2022/08/08 20:24:25;;;;;;;14.00;4.80;;;;;;;21.85;68.75;101401.92;656537;1277;139717;-82
2022/08/08 20:39:31;;;;;;;13.20;5.60;;;;;;;21.71;69.74;101408.90;655983;1277;138522;-80
2022/08/08 20:54:51;;;;;;;15.10;7.60;;;;;;;21.54;70.70;101413.11;656585;1277;138717;-80
2022/08/08 21:09:55;;;;;;;16.20;7.10;;;;;;;21.42;71.82;101419.77;654932;1277;139016;-80
2022/08/08 21:25:15;;;;;;;14.20;5.00;;;;;;;21.26;73.36;101427.31;655017;1277;138580;-80
2022/08/08 21:40:19;;;;;;;14.80;5.40;;;;;;;21.13;74.02;101427.82;654746;1277;1204484;-80
2022/08/08 21:55:33;;;;;;;4.30;2.90;;;;;;;21.01;74.45;101429.94;655289;1277;139934;-80
2022/08/08 22:10:56;;;;;;;5.10;2.60;;;;;;;20.85;75.18;101432.88;656019;1277;140820;-80
2022/08/08 22:25:59;;;;;;;4.70;2.50;;;;;;;20.77;75.48;101434.38;659396;1277;139859;-79
2022/08/08 22:41:22;;;;;;;4.80;2.30;;;;;;;20.71;75.33;101434.88;655591;1277;139069;-80
2022/08/08 22:56:30;;;;;;;6.90;2.90;;;;;;;20.68;75.60;101434.87;655734;1277;140717;-80
2022/08/08 23:11:33;;;;;;;7.10;2.70;;;;;;;20.52;75.85;101430.26;654869;1277;140171;-82
2022/08/08 23:26:56;;;;;;;5.80;3.40;;;;;;;20.44;76.10;101428.70;655577;1277;138858;-79
2022/08/08 23:42:01;;;;;;;4.70;3.20;;;;;;;20.30;76.98;101431.11;655534;1277;139096;-79
2022/08/08 23:57:04;;;;;;;12.00;5.20;;;;;;;20.18;78.04;101436.01;655189;1277;139071;-79
